sensor_id;sensor_type;location;lat;lon;timestamp;P1;durP1;ratioP1;P2;durP2;ratioP2
15843;SDS011;50807;52.436;13.346;2023-02-28T00:00:02;2.30;;;2.05;;
15843;SDS011;50807;52.436;13.346;2023-02-28T00:00:39;2.65;;;2.42;;
15843;SDS011;50807;52.436;13.346;2023-02-28T00:01:10;2.53;;;2.20;;
15843;SDS011;50807;52.436;13.346;2023-02-28T00:01:43;2.50;;;2.13;;
15843;SDS011;50807;52.436;13.346;2023-02-28T00:02:14;3.13;;;2.23;;
15843;SDS011;50807;52.436;13.346;2023-02-28T00:02:47;3.83;;;2.40;;
15843;SDS011;50807;52.436;13.346;2023-02-28T00:03:19;2.63;;;2.42;;
15843;SDS011;50807;52.436;13.346;2023-02-28T00:03:50;2.90;;;2.60;;
15843;SDS011;50807;52.436;13.346;2023-02-28T00:04:21;2.83;;;2.10;;
15843;SDS011;50807;52.436;13.346;2023-02-28T00:04:53;3.03;;;2.50;;
15843;SDS011;50807;52.436;13.346;2023-02-28T00:05:30;2.72;;;2.33;;
15843;SDS011;50807;52.436;13.346;2023-02-28T00:06:03;2.35;;;2.15;;
15843;SDS011;50807;52.436;13.346;2023-02-28T00:06:37;2.95;;;2.63;;
15843;SDS011;50807;52.436;13.346;2023-02-28T00:07:08;2.83;;;2.27;;
15843;SDS011;50807;52.436;13.346;2023-02-28T00:07:39;2.63;;;2.43;;
15843;SDS011;50807;52.436;13.346;2023-02-28T00:08:11;2.75;;;2.55;;
15843;SDS011;50807;52.436;13.346;2023-02-28T00:08:43;3.05;;;2.47;;
15843;SDS011;50807;52.436;13.346;2023-02-28T00:09:15;2.95;;;2.28;;
15843;SDS011;50807;52.436;13.346;2023-02-28T00:09:46;2.37;;;2.17;;
15843;SDS011;50807;52.436;13.346;2023-02-28T00:10:17;3.43;;;2.50;;
15843;SDS011;50807;52.436;13.346;2023-02-28T00:10:54;3.53;;;2.67;;
15843;SDS011;50807;52.436;13.346;2023-02-28T00:11:25;2.70;;;2.50;;
15843;SDS011;50807;52.436;13.346;2023-02-28T00:11:55;4.07;;;2.70;;
15843;SDS011;50807;52.436;13.346;2023-02-28T00:12:28;2.70;;;2.50;;
15843;SDS011;50807;52.436;13.346;2023-02-28T00:12:59;2.70;;;2.50;;
15843;SDS011;50807;52.436;13.346;2023-02-28T00:13:33;3.08;;;2.50;;
15843;SDS011;50807;52.436;13.346;2023-02-28T00:14:07;2.67;;;2.35;;
15843;SDS011;50807;52.436;13.346;2023-02-28T00:14:38;3.80;;;2.97;;
15843;SDS011;50807;52.436;13.346;2023-02-28T00:15:09;2.60;;;2.40;;
15843;SDS011;50807;52.436;13.346;2023-02-28T00:15:41;2.95;;;2.65;;
15843;SDS011;50807;52.436;13.346;2023-02-28T00:16:13;3.10;;;2.37;;
15843;SDS011;50807;52.436;13.346;2023-02-28T00:16:47;2.90;;;2.40;;
15843;SDS011;50807;52.436;13.346;2023-02-28T00:17:18;5.07;;;3.20;;
15843;SDS011;50807;52.436;13.346;2023-02-28T00:17:51;2.90;;;2.47;;
15843;SDS011;50807;52.436;13.346;2023-02-28T00:18:22;2.58;;;2.38;;
15843;SDS011;50807;52.436;13.346;2023-02-28T00:18:53;3.30;;;2.38;;
15843;SDS011;50807;52.436;13.346;2023-02-28T00:19:24;3.17;;;2.43;;
15843;SDS011;50807;52.436;13.346;2023-02-28T00:19:55;2.90;;;2.60;;
15843;SDS011;50807;52.436;13.346;2023-02-28T00:20:31;2.47;;;2.28;;
15843;SDS011;50807;52.436;13.346;2023-02-28T00:21:02;2.83;;;2.50;;
15843;SDS011;50807;52.436;13.346;2023-02-28T00:21:33;2.60;;;2.30;;
15843;SDS011;50807;52.436;13.346;2023-02-28T00:22:05;2.47;;;2.17;;
15843;SDS011;50807;52.436;13.346;2023-02-28T00:22:36;2.63;;;2.43;;
15843;SDS011;50807;52.436;13.346;2023-02-28T00:23:08;3.00;;;2.70;;
15843;SDS011;50807;52.436;13.346;2023-02-28T00:23:40;2.70;;;2.50;;
15843;SDS011;50807;52.436;13.346;2023-02-28T00:24:10;2.70;;;2.50;;
15843;SDS011;50807;52.436;13.346;2023-02-28T00:24:41;3.33;;;2.60;;
15843;SDS011;50807;52.436;13.346;2023-02-28T00:25:14;3.67;;;2.65;;
15843;SDS011;50807;52.436;13.346;2023-02-28T00:25:46;3.25;;;2.92;;
15843;SDS011;50807;52.436;13.346;2023-02-28T00:26:18;2.97;;;2.50;;
15843;SDS011;50807;52.436;13.346;2023-02-28T00:26:50;3.25;;;2.75;;
15843;SDS011;50807;52.436;13.346;2023-02-28T00:27:21;3.57;;;2.90;;
15843;SDS011;50807;52.436;13.346;2023-02-28T00:27:52;2.72;;;2.53;;
15843;SDS011;50807;52.436;13.346;2023-02-28T00:28:24;3.47;;;2.67;;
15843;SDS011;50807;52.436;13.346;2023-02-28T00:28:55;2.38;;;2.17;;
15843;SDS011;50807;52.436;13.346;2023-02-28T00:29:27;3.45;;;2.58;;
15843;SDS011;50807;52.436;13.346;2023-02-28T00:29:57;2.83;;;2.50;;
15843;SDS011;50807;52.436;13.346;2023-02-28T00:30:28;3.40;;;3.10;;
15843;SDS011;50807;52.436;13.346;2023-02-28T00:31:00;2.90;;;2.60;;
15843;SDS011;50807;52.436;13.346;2023-02-28T00:31:31;4.00;;;2.60;;
15843;SDS011;50807;52.436;13.346;2023-02-28T00:32:02;3.50;;;2.90;;
15843;SDS011;50807;52.436;13.346;2023-02-28T00:32:34;2.58;;;2.30;;
15843;SDS011;50807;52.436;13.346;2023-02-28T00:33:05;2.90;;;2.60;;
15843;SDS011;50807;52.436;13.346;2023-02-28T00:33:36;3.20;;;2.40;;
15843;SDS011;50807;52.436;13.346;2023-02-28T00:34:08;2.80;;;2.53;;
15843;SDS011;50807;52.436;13.346;2023-02-28T00:34:39;3.30;;;2.77;;
15843;SDS011;50807;52.436;13.346;2023-02-28T00:35:10;2.50;;;2.30;;
15843;SDS011;50807;52.436;13.346;2023-02-28T00:35:43;2.90;;;2.65;;
15843;SDS011;50807;52.436;13.346;2023-02-28T00:36:16;4.20;;;3.15;;
15843;SDS011;50807;52.436;13.346;2023-02-28T00:36:46;2.60;;;2.40;;
15843;SDS011;50807;52.436;13.346;2023-02-28T00:37:19;2.85;;;2.60;;
15843;SDS011;50807;52.436;13.346;2023-02-28T00:37:50;2.80;;;2.60;;
15843;SDS011;50807;52.436;13.346;2023-02-28T00:38:21;2.60;;;2.40;;
15843;SDS011;50807;52.436;13.346;2023-02-28T00:38:52;2.78;;;2.42;;
15843;SDS011;50807;52.436;13.346;2023-02-28T00:39:23;2.70;;;2.47;;
15843;SDS011;50807;52.436;13.346;2023-02-28T00:39:54;3.10;;;2.40;;
15843;SDS011;50807;52.436;13.346;2023-02-28T00:40:26;2.83;;;2.42;;
15843;SDS011;50807;52.436;13.346;2023-02-28T00:40:57;2.60;;;2.40;;
15843;SDS011;50807;52.436;13.346;2023-02-28T00:41:35;4.78;;;3.20;;
15843;SDS011;50807;52.436;13.346;2023-02-28T00:42:06;2.80;;;2.53;;
15843;SDS011;50807;52.436;13.346;2023-02-28T00:42:38;3.75;;;2.88;;
15843;SDS011;50807;52.436;13.346;2023-02-28T00:43:10;3.03;;;2.72;;
15843;SDS011;50807;52.436;13.346;2023-02-28T00:43:41;3.20;;;2.90;;
15843;SDS011;50807;52.436;13.346;2023-02-28T00:44:12;3.10;;;2.63;;
15843;SDS011;50807;52.436;13.346;2023-02-28T00:44:44;2.60;;;2.40;;
15843;SDS011;50807;52.436;13.346;2023-02-28T00:45:15;3.38;;;2.70;;
15843;SDS011;50807;52.436;13.346;2023-02-28T00:45:46;3.07;;;2.70;;
15843;SDS011;50807;52.436;13.346;2023-02-28T00:46:18;2.58;;;2.33;;
15843;SDS011;50807;52.436;13.346;2023-02-28T00:46:48;3.43;;;2.53;;
15843;SDS011;50807;52.436;13.346;2023-02-28T00:47:19;2.77;;;2.57;;
15843;SDS011;50807;52.436;13.346;2023-02-28T00:47:51;2.88;;;2.58;;
15843;SDS011;50807;52.436;13.346;2023-02-28T00:48:21;2.83;;;2.50;;
15843;SDS011;50807;52.436;13.346;2023-02-28T00:48:52;2.67;;;2.47;;
15843;SDS011;50807;52.436;13.346;2023-02-28T00:49:24;3.95;;;3.13;;
15843;SDS011;50807;52.436;13.346;2023-02-28T00:49:56;2.97;;;2.67;;
15843;SDS011;50807;52.436;13.346;2023-02-28T00:50:26;2.67;;;2.47;;
15843;SDS011;50807;52.436;13.346;2023-02-28T00:50:58;3.25;;;2.95;;
15843;SDS011;50807;52.436;13.346;2023-02-28T00:51:29;3.42;;;2.97;;
15843;SDS011;50807;52.436;13.346;2023-02-28T00:52:01;3.05;;;2.67;;
15843;SDS011;50807;52.436;13.346;2023-02-28T00:52:32;3.40;;;3.05;;
15843;SDS011;50807;52.436;13.346;2023-02-28T00:53:04;3.20;;;2.67;;
15843;SDS011;50807;52.436;13.346;2023-02-28T00:53:36;3.00;;;2.67;;
15843;SDS011;50807;52.436;13.346;2023-02-28T00:54:06;3.10;;;2.80;;
15843;SDS011;50807;52.436;13.346;2023-02-28T00:54:37;3.13;;;2.83;;
15843;SDS011;50807;52.436;13.346;2023-02-28T00:55:09;3.33;;;2.75;;
15843;SDS011;50807;52.436;13.346;2023-02-28T00:55:40;2.83;;;2.35;;
15843;SDS011;50807;52.436;13.346;2023-02-28T00:56:11;3.10;;;2.50;;
15843;SDS011;50807;52.436;13.346;2023-02-28T00:56:44;2.53;;;2.33;;
15843;SDS011;50807;52.436;13.346;2023-02-28T00:57:15;2.60;;;2.40;;
15843;SDS011;50807;52.436;13.346;2023-02-28T00:57:46;3.60;;;2.80;;
15843;SDS011;50807;52.436;13.346;2023-02-28T00:58:18;3.15;;;2.65;;
15843;SDS011;50807;52.436;13.346;2023-02-28T00:58:49;3.13;;;2.43;;
15843;SDS011;50807;52.436;13.346;2023-02-28T00:59:19;3.13;;;2.83;;
15843;SDS011;50807;52.436;13.346;2023-02-28T00:59:51;2.90;;;2.70;;
15843;SDS011;50807;52.436;13.346;2023-02-28T01:00:24;3.50;;;2.80;;
15843;SDS011;50807;52.436;13.346;2023-02-28T01:00:54;3.67;;;3.03;;
15843;SDS011;50807;52.436;13.346;2023-02-28T01:01:26;3.08;;;2.70;;
15843;SDS011;50807;52.436;13.346;2023-02-28T01:01:57;3.70;;;2.80;;
15843;SDS011;50807;52.436;13.346;2023-02-28T01:02:28;3.42;;;2.97;;
15843;SDS011;50807;52.436;13.346;2023-02-28T01:03:00;3.05;;;2.75;;
15843;SDS011;50807;52.436;13.346;2023-02-28T01:03:31;3.00;;;2.70;;
15843;SDS011;50807;52.436;13.346;2023-02-28T01:04:02;4.00;;;2.72;;
15843;SDS011;50807;52.436;13.346;2023-02-28T01:04:34;2.55;;;2.35;;
15843;SDS011;50807;52.436;13.346;2023-02-28T01:05:05;3.40;;;2.90;;
15843;SDS011;50807;52.436;13.346;2023-02-28T01:05:37;3.22;;;2.92;;
15843;SDS011;50807;52.436;13.346;2023-02-28T01:06:09;2.85;;;2.55;;
15843;SDS011;50807;52.436;13.346;2023-02-28T01:06:39;3.47;;;2.97;;
15843;SDS011;50807;52.436;13.346;2023-02-28T01:07:11;2.97;;;2.67;;
15843;SDS011;50807;52.436;13.346;2023-02-28T01:07:44;3.45;;;2.95;;
15843;SDS011;50807;52.436;13.346;2023-02-28T01:08:15;3.50;;;3.07;;
15843;SDS011;50807;52.436;13.346;2023-02-28T01:08:46;3.17;;;2.47;;
15843;SDS011;50807;52.436;13.346;2023-02-28T01:09:17;3.10;;;2.70;;
15843;SDS011;50807;52.436;13.346;2023-02-28T01:09:48;3.42;;;2.80;;
15843;SDS011;50807;52.436;13.346;2023-02-28T01:10:19;3.17;;;2.87;;
15843;SDS011;50807;52.436;13.346;2023-02-28T01:10:50;4.80;;;3.35;;
15843;SDS011;50807;52.436;13.346;2023-02-28T01:11:22;3.45;;;3.15;;
15843;SDS011;50807;52.436;13.346;2023-02-28T01:11:55;3.08;;;2.78;;
15843;SDS011;50807;52.436;13.346;2023-02-28T01:12:25;2.67;;;2.47;;
15843;SDS011;50807;52.436;13.346;2023-02-28T01:12:57;2.90;;;2.60;;
15843;SDS011;50807;52.436;13.346;2023-02-28T01:13:28;3.03;;;2.77;;
15843;SDS011;50807;52.436;13.346;2023-02-28T01:13:59;3.20;;;2.90;;
15843;SDS011;50807;52.436;13.346;2023-02-28T01:14:31;3.47;;;2.92;;
15843;SDS011;50807;52.436;13.346;2023-02-28T01:15:02;3.23;;;2.93;;
15843;SDS011;50807;52.436;13.346;2023-02-28T01:15:33;2.60;;;2.40;;
15843;SDS011;50807;52.436;13.346;2023-02-28T01:16:06;3.22;;;2.70;;
15843;SDS011;50807;52.436;13.346;2023-02-28T01:16:37;3.58;;;2.92;;
15843;SDS011;50807;52.436;13.346;2023-02-28T01:17:07;3.20;;;2.90;;
15843;SDS011;50807;52.436;13.346;2023-02-28T01:17:39;4.20;;;2.85;;
15843;SDS011;50807;52.436;13.346;2023-02-28T01:18:10;3.63;;;2.80;;
15843;SDS011;50807;52.436;13.346;2023-02-28T01:18:41;3.17;;;2.87;;
15843;SDS011;50807;52.436;13.346;2023-02-28T01:19:14;3.13;;;2.83;;
15843;SDS011;50807;52.436;13.346;2023-02-28T01:19:45;4.80;;;2.90;;
15843;SDS011;50807;52.436;13.346;2023-02-28T01:20:16;3.07;;;2.73;;
15843;SDS011;50807;52.436;13.346;2023-02-28T01:20:48;3.20;;;2.90;;
15843;SDS011;50807;52.436;13.346;2023-02-28T01:21:21;2.88;;;2.55;;
15843;SDS011;50807;52.436;13.346;2023-02-28T01:21:53;3.50;;;3.15;;
15843;SDS011;50807;52.436;13.346;2023-02-28T01:22:25;3.30;;;3.00;;
15843;SDS011;50807;52.436;13.346;2023-02-28T01:22:55;3.00;;;2.70;;
15843;SDS011;50807;52.436;13.346;2023-02-28T01:23:26;3.20;;;2.87;;
15843;SDS011;50807;52.436;13.346;2023-02-28T01:23:58;3.78;;;2.85;;
15843;SDS011;50807;52.436;13.346;2023-02-28T01:24:29;3.57;;;3.00;;
15843;SDS011;50807;52.436;13.346;2023-02-28T01:24:59;3.03;;;2.73;;
15843;SDS011;50807;52.436;13.346;2023-02-28T01:25:33;3.00;;;2.70;;
15843;SDS011;50807;52.436;13.346;2023-02-28T01:26:04;2.92;;;2.65;;
15843;SDS011;50807;52.436;13.346;2023-02-28T01:26:36;3.47;;;3.03;;
15843;SDS011;50807;52.436;13.346;2023-02-28T01:27:09;3.10;;;2.80;;
15843;SDS011;50807;52.436;13.346;2023-02-28T01:27:40;3.53;;;3.22;;
15843;SDS011;50807;52.436;13.346;2023-02-28T01:28:10;3.13;;;2.83;;
15843;SDS011;50807;52.436;13.346;2023-02-28T01:28:42;3.00;;;2.70;;
15843;SDS011;50807;52.436;13.346;2023-02-28T01:29:13;4.47;;;3.35;;
15843;SDS011;50807;52.436;13.346;2023-02-28T01:29:45;4.10;;;2.90;;
15843;SDS011;50807;52.436;13.346;2023-02-28T01:30:17;3.10;;;2.80;;
15843;SDS011;50807;52.436;13.346;2023-02-28T01:30:48;3.05;;;2.75;;
15843;SDS011;50807;52.436;13.346;2023-02-28T01:31:19;3.50;;;3.03;;
15843;SDS011;50807;52.436;13.346;2023-02-28T01:31:52;4.85;;;3.38;;
15843;SDS011;50807;52.436;13.346;2023-02-28T01:32:23;3.53;;;3.13;;
15843;SDS011;50807;52.436;13.346;2023-02-28T01:32:53;3.27;;;2.97;;
15843;SDS011;50807;52.436;13.346;2023-02-28T01:33:25;2.88;;;2.65;;
15843;SDS011;50807;52.436;13.346;2023-02-28T01:33:56;2.97;;;2.72;;
15843;SDS011;50807;52.436;13.346;2023-02-28T01:34:28;3.08;;;2.78;;
15843;SDS011;50807;52.436;13.346;2023-02-28T01:34:59;2.93;;;2.63;;
15843;SDS011;50807;52.436;13.346;2023-02-28T01:35:31;2.70;;;2.50;;
15843;SDS011;50807;52.436;13.346;2023-02-28T01:36:04;3.28;;;2.95;;
15843;SDS011;50807;52.436;13.346;2023-02-28T01:36:39;3.40;;;2.88;;
15843;SDS011;50807;52.436;13.346;2023-02-28T01:37:10;3.20;;;2.90;;
15843;SDS011;50807;52.436;13.346;2023-02-28T01:37:41;3.30;;;2.88;;
15843;SDS011;50807;52.436;13.346;2023-02-28T01:38:12;3.30;;;3.00;;
15843;SDS011;50807;52.436;13.346;2023-02-28T01:38:43;3.27;;;2.97;;
15843;SDS011;50807;52.436;13.346;2023-02-28T01:39:16;3.83;;;3.40;;
15843;SDS011;50807;52.436;13.346;2023-02-28T01:39:46;3.40;;;3.10;;
15843;SDS011;50807;52.436;13.346;2023-02-28T01:40:17;3.50;;;3.20;;
15843;SDS011;50807;52.436;13.346;2023-02-28T01:40:49;4.43;;;3.33;;
15843;SDS011;50807;52.436;13.346;2023-02-28T01:41:21;3.67;;;3.28;;
15843;SDS011;50807;52.436;13.346;2023-02-28T01:41:55;2.78;;;2.58;;
15843;SDS011;50807;52.436;13.346;2023-02-28T01:42:28;3.00;;;2.70;;
15843;SDS011;50807;52.436;13.346;2023-02-28T01:42:58;3.38;;;3.08;;
15843;SDS011;50807;52.436;13.346;2023-02-28T01:43:30;3.23;;;2.93;;
15843;SDS011;50807;52.436;13.346;2023-02-28T01:45:32;3.08;;;2.63;;
15843;SDS011;50807;52.436;13.346;2023-02-28T01:46:05;3.05;;;2.75;;
15843;SDS011;50807;52.436;13.346;2023-02-28T01:46:36;3.97;;;3.20;;
15843;SDS011;50807;52.436;13.346;2023-02-28T01:47:08;3.15;;;2.85;;
15843;SDS011;50807;52.436;13.346;2023-02-28T01:47:39;3.27;;;2.70;;
15843;SDS011;50807;52.436;13.346;2023-02-28T01:48:13;2.85;;;2.55;;
15843;SDS011;50807;52.436;13.346;2023-02-28T01:48:48;3.28;;;2.97;;
15843;SDS011;50807;52.436;13.346;2023-02-28T01:49:23;3.53;;;3.08;;
15843;SDS011;50807;52.436;13.346;2023-02-28T01:49:54;3.58;;;3.28;;
15843;SDS011;50807;52.436;13.346;2023-02-28T01:50:27;3.40;;;3.10;;
15843;SDS011;50807;52.436;13.346;2023-02-28T01:51:05;4.15;;;3.22;;
15843;SDS011;50807;52.436;13.346;2023-02-28T01:51:41;2.88;;;2.67;;
15843;SDS011;50807;52.436;13.346;2023-02-28T01:52:20;3.20;;;2.80;;
15843;SDS011;50807;52.436;13.346;2023-02-28T01:52:55;3.58;;;3.03;;
15843;SDS011;50807;52.436;13.346;2023-02-28T01:53:32;3.65;;;2.78;;
15843;SDS011;50807;52.436;13.346;2023-02-28T01:54:11;3.92;;;2.90;;
15843;SDS011;50807;52.436;13.346;2023-02-28T01:54:49;3.20;;;2.90;;
15843;SDS011;50807;52.436;13.346;2023-02-28T01:55:24;3.55;;;3.20;;
15843;SDS011;50807;52.436;13.346;2023-02-28T01:55:58;3.00;;;2.58;;
15843;SDS011;50807;52.436;13.346;2023-02-28T01:56:31;4.60;;;3.53;;
15843;SDS011;50807;52.436;13.346;2023-02-28T01:57:07;4.03;;;3.25;;
15843;SDS011;50807;52.436;13.346;2023-02-28T01:57:48;3.03;;;2.72;;
15843;SDS011;50807;52.436;13.346;2023-02-28T01:58:23;3.35;;;2.60;;
15843;SDS011;50807;52.436;13.346;2023-02-28T01:58:55;3.53;;;2.70;;
15843;SDS011;50807;52.436;13.346;2023-02-28T01:59:28;3.42;;;3.13;;
15843;SDS011;50807;52.436;13.346;2023-02-28T02:00:06;3.22;;;2.90;;
15843;SDS011;50807;52.436;13.346;2023-02-28T02:00:44;3.05;;;2.75;;
15843;SDS011;50807;52.436;13.346;2023-02-28T02:01:16;3.85;;;3.17;;
15843;SDS011;50807;52.436;13.346;2023-02-28T02:01:51;2.70;;;2.50;;
15843;SDS011;50807;52.436;13.346;2023-02-28T02:02:24;4.25;;;3.00;;
15843;SDS011;50807;52.436;13.346;2023-02-28T02:02:57;3.60;;;3.30;;
15843;SDS011;50807;52.436;13.346;2023-02-28T02:03:34;3.22;;;2.92;;
15843;SDS011;50807;52.436;13.346;2023-02-28T02:04:07;3.30;;;2.90;;
15843;SDS011;50807;52.436;13.346;2023-02-28T02:04:38;3.07;;;2.87;;
15843;SDS011;50807;52.436;13.346;2023-02-28T02:05:22;3.25;;;2.95;;
15843;SDS011;50807;52.436;13.346;2023-02-28T02:05:56;3.20;;;2.90;;
15843;SDS011;50807;52.436;13.346;2023-02-28T02:06:28;3.60;;;2.75;;
15843;SDS011;50807;52.436;13.346;2023-02-28T02:07:04;2.90;;;2.65;;
15843;SDS011;50807;52.436;13.346;2023-02-28T02:07:36;3.42;;;2.92;;
15843;SDS011;50807;52.436;13.346;2023-02-28T02:08:11;3.72;;;3.33;;
15843;SDS011;50807;52.436;13.346;2023-02-28T02:08:47;2.90;;;2.70;;
15843;SDS011;50807;52.436;13.346;2023-02-28T02:09:18;3.40;;;3.10;;
15843;SDS011;50807;52.436;13.346;2023-02-28T02:09:49;3.07;;;2.77;;
15843;SDS011;50807;52.436;13.346;2023-02-28T02:10:21;3.83;;;3.35;;
15843;SDS011;50807;52.436;13.346;2023-02-28T02:10:59;3.22;;;2.92;;
15843;SDS011;50807;52.436;13.346;2023-02-28T02:11:31;2.97;;;2.67;;
15843;SDS011;50807;52.436;13.346;2023-02-28T02:12:07;3.13;;;2.83;;
15843;SDS011;50807;52.436;13.346;2023-02-28T02:12:58;3.83;;;3.35;;
15843;SDS011;50807;52.436;13.346;2023-02-28T02:13:46;3.90;;;3.15;;
15843;SDS011;50807;52.436;13.346;2023-02-28T02:14:40;3.15;;;2.85;;
15843;SDS011;50807;52.436;13.346;2023-02-28T02:15:28;2.78;;;2.50;;
15843;SDS011;50807;52.436;13.346;2023-02-28T02:16:09;3.47;;;3.17;;
15843;SDS011;50807;52.436;13.346;2023-02-28T02:17:00;3.30;;;3.00;;
15843;SDS011;50807;52.436;13.346;2023-02-28T02:17:49;3.25;;;2.95;;
15843;SDS011;50807;52.436;13.346;2023-02-28T02:18:29;3.10;;;2.80;;
15843;SDS011;50807;52.436;13.346;2023-02-28T02:19:15;3.42;;;2.90;;
15843;SDS011;50807;52.436;13.346;2023-02-28T02:22:53;3.70;;;3.03;;
15843;SDS011;50807;52.436;13.346;2023-02-28T02:25:27;2.85;;;2.55;;
15843;SDS011;50807;52.436;13.346;2023-02-28T02:26:08;3.22;;;2.92;;
15843;SDS011;50807;52.436;13.346;2023-02-28T02:28:22;3.35;;;2.80;;
15843;SDS011;50807;52.436;13.346;2023-02-28T02:29:35;3.00;;;2.80;;
15843;SDS011;50807;52.436;13.346;2023-02-28T02:30:54;3.85;;;2.80;;
15843;SDS011;50807;52.436;13.346;2023-02-28T02:34:55;2.90;;;2.70;;
15843;SDS011;50807;52.436;13.346;2023-02-28T02:35:35;3.33;;;3.03;;
15843;SDS011;50807;52.436;13.346;2023-02-28T02:36:18;3.05;;;2.75;;
15843;SDS011;50807;52.436;13.346;2023-02-28T02:36:57;3.78;;;3.03;;
15843;SDS011;50807;52.436;13.346;2023-02-28T02:37:42;3.65;;;3.10;;
15843;SDS011;50807;52.436;13.346;2023-02-28T02:38:26;3.30;;;3.00;;
15843;SDS011;50807;52.436;13.346;2023-02-28T02:39:05;3.30;;;3.00;;
15843;SDS011;50807;52.436;13.346;2023-02-28T02:39:47;3.13;;;2.83;;
15843;SDS011;50807;52.436;13.346;2023-02-28T02:40:30;3.28;;;2.95;;
15843;SDS011;50807;52.436;13.346;2023-02-28T02:41:12;3.30;;;3.00;;
15843;SDS011;50807;52.436;13.346;2023-02-28T02:41:51;3.85;;;3.47;;
15843;SDS011;50807;52.436;13.346;2023-02-28T02:42:25;3.63;;;3.22;;
15843;SDS011;50807;52.436;13.346;2023-02-28T02:43:07;4.30;;;3.55;;
15843;SDS011;50807;52.436;13.346;2023-02-28T02:43:48;4.00;;;3.60;;
15843;SDS011;50807;52.436;13.346;2023-02-28T02:44:24;4.13;;;3.65;;
15843;SDS011;50807;52.436;13.346;2023-02-28T02:45:05;4.45;;;3.60;;
15843;SDS011;50807;52.436;13.346;2023-02-28T02:45:44;3.30;;;3.00;;
15843;SDS011;50807;52.436;13.346;2023-02-28T02:46:20;3.65;;;3.35;;
15843;SDS011;50807;52.436;13.346;2023-02-28T02:46:58;3.85;;;3.10;;
15843;SDS011;50807;52.436;13.346;2023-02-28T02:47:37;3.53;;;3.20;;
15843;SDS011;50807;52.436;13.346;2023-02-28T02:48:11;3.67;;;3.38;;
15843;SDS011;50807;52.436;13.346;2023-02-28T02:48:49;3.13;;;2.83;;
15843;SDS011;50807;52.436;13.346;2023-02-28T02:49:27;3.40;;;3.10;;
15843;SDS011;50807;52.436;13.346;2023-02-28T02:50:02;3.45;;;3.15;;
15843;SDS011;50807;52.436;13.346;2023-02-28T02:50:43;3.50;;;3.20;;
15843;SDS011;50807;52.436;13.346;2023-02-28T02:51:19;3.13;;;2.80;;
15843;SDS011;50807;52.436;13.346;2023-02-28T02:51:53;3.70;;;3.17;;
15843;SDS011;50807;52.436;13.346;2023-02-28T02:52:29;3.67;;;3.30;;
15843;SDS011;50807;52.436;13.346;2023-02-28T02:53:07;3.60;;;3.30;;
15843;SDS011;50807;52.436;13.346;2023-02-28T02:53:44;3.83;;;3.40;;
15843;SDS011;50807;52.436;13.346;2023-02-28T02:54:21;3.28;;;2.97;;
15843;SDS011;50807;52.436;13.346;2023-02-28T02:54:58;4.40;;;2.75;;
15843;SDS011;50807;52.436;13.346;2023-02-28T02:55:34;3.17;;;2.83;;
15843;SDS011;50807;52.436;13.346;2023-02-28T02:56:11;3.75;;;3.20;;
15843;SDS011;50807;52.436;13.346;2023-02-28T02:56:45;3.38;;;3.08;;
15843;SDS011;50807;52.436;13.346;2023-02-28T02:57:21;3.65;;;3.35;;
15843;SDS011;50807;52.436;13.346;2023-02-28T02:57:59;4.22;;;2.90;;
15843;SDS011;50807;52.436;13.346;2023-02-28T02:58:36;4.63;;;2.97;;
15843;SDS011;50807;52.436;13.346;2023-02-28T02:59:13;3.38;;;3.10;;
15843;SDS011;50807;52.436;13.346;2023-02-28T02:59:51;4.07;;;3.65;;
15843;SDS011;50807;52.436;13.346;2023-02-28T03:00:26;3.33;;;3.03;;
15843;SDS011;50807;52.436;13.346;2023-02-28T03:01:03;3.00;;;2.75;;
15843;SDS011;50807;52.436;13.346;2023-02-28T03:01:35;4.15;;;3.40;;
15843;SDS011;50807;52.436;13.346;2023-02-28T03:02:11;3.50;;;3.20;;
15843;SDS011;50807;52.436;13.346;2023-02-28T03:02:47;3.30;;;3.00;;
15843;SDS011;50807;52.436;13.346;2023-02-28T03:03:21;3.80;;;3.50;;
15843;SDS011;50807;52.436;13.346;2023-02-28T03:03:59;3.58;;;3.25;;
15843;SDS011;50807;52.436;13.346;2023-02-28T03:04:38;4.20;;;3.80;;
15843;SDS011;50807;52.436;13.346;2023-02-28T03:05:17;4.88;;;3.47;;
15843;SDS011;50807;52.436;13.346;2023-02-28T03:05:55;4.22;;;2.70;;
15843;SDS011;50807;52.436;13.346;2023-02-28T03:06:27;3.92;;;3.38;;
15843;SDS011;50807;52.436;13.346;2023-02-28T03:06:58;5.18;;;3.67;;
15843;SDS011;50807;52.436;13.346;2023-02-28T03:07:30;4.10;;;3.30;;
15843;SDS011;50807;52.436;13.346;2023-02-28T03:08:03;3.60;;;3.30;;
15843;SDS011;50807;52.436;13.346;2023-02-28T03:08:35;3.60;;;3.30;;
15843;SDS011;50807;52.436;13.346;2023-02-28T03:09:09;4.05;;;3.70;;
15843;SDS011;50807;52.436;13.346;2023-02-28T03:09:40;3.37;;;3.07;;
15843;SDS011;50807;52.436;13.346;2023-02-28T03:10:32;3.88;;;3.45;;
15843;SDS011;50807;52.436;13.346;2023-02-28T03:11:11;4.03;;;3.63;;
15843;SDS011;50807;52.436;13.346;2023-02-28T03:11:45;3.90;;;3.50;;
15843;SDS011;50807;52.436;13.346;2023-02-28T03:12:16;3.50;;;3.20;;
15843;SDS011;50807;52.436;13.346;2023-02-28T03:12:49;3.83;;;3.47;;
15843;SDS011;50807;52.436;13.346;2023-02-28T03:13:39;3.97;;;3.25;;
15843;SDS011;50807;52.436;13.346;2023-02-28T03:14:25;2.95;;;2.75;;
15843;SDS011;50807;52.436;13.346;2023-02-28T03:15:08;3.70;;;3.40;;
15843;SDS011;50807;52.436;13.346;2023-02-28T03:15:57;3.67;;;3.25;;
15843;SDS011;50807;52.436;13.346;2023-02-28T03:16:49;3.70;;;3.40;;
15843;SDS011;50807;52.436;13.346;2023-02-28T03:17:47;3.47;;;3.17;;
15843;SDS011;50807;52.436;13.346;2023-02-28T03:18:32;4.28;;;3.00;;
15843;SDS011;50807;52.436;13.346;2023-02-28T03:19:17;3.47;;;3.17;;
15843;SDS011;50807;52.436;13.346;2023-02-28T03:20:17;3.10;;;2.80;;
15843;SDS011;50807;52.436;13.346;2023-02-28T03:21:02;3.38;;;3.08;;
15843;SDS011;50807;52.436;13.346;2023-02-28T03:21:46;4.28;;;3.50;;
15843;SDS011;50807;52.436;13.346;2023-02-28T03:22:35;3.80;;;3.28;;
15843;SDS011;50807;52.436;13.346;2023-02-28T03:23:21;5.03;;;3.60;;
15843;SDS011;50807;52.436;13.346;2023-02-28T03:24:03;3.72;;;3.30;;
15843;SDS011;50807;52.436;13.346;2023-02-28T03:24:40;4.13;;;3.72;;
15843;SDS011;50807;52.436;13.346;2023-02-28T03:25:27;4.35;;;3.60;;
15843;SDS011;50807;52.436;13.346;2023-02-28T03:26:06;4.03;;;3.63;;
15843;SDS011;50807;52.436;13.346;2023-02-28T03:26:47;3.70;;;3.40;;
15843;SDS011;50807;52.436;13.346;2023-02-28T03:27:26;3.85;;;3.38;;
15843;SDS011;50807;52.436;13.346;2023-02-28T03:28:02;4.25;;;3.63;;
15843;SDS011;50807;52.436;13.346;2023-02-28T03:28:43;4.45;;;3.72;;
15843;SDS011;50807;52.436;13.346;2023-02-28T03:29:26;3.85;;;3.45;;
15843;SDS011;50807;52.436;13.346;2023-02-28T03:30:06;4.80;;;4.28;;
15843;SDS011;50807;52.436;13.346;2023-02-28T03:30:48;4.38;;;3.58;;
15843;SDS011;50807;52.436;13.346;2023-02-28T03:31:26;4.18;;;3.72;;
15843;SDS011;50807;52.436;13.346;2023-02-28T03:32:03;4.20;;;3.80;;
15843;SDS011;50807;52.436;13.346;2023-02-28T03:32:45;4.57;;;4.18;;
15843;SDS011;50807;52.436;13.346;2023-02-28T03:33:28;4.07;;;3.67;;
15843;SDS011;50807;52.436;13.346;2023-02-28T03:34:06;4.68;;;3.90;;
15843;SDS011;50807;52.436;13.346;2023-02-28T03:34:45;4.30;;;3.90;;
15843;SDS011;50807;52.436;13.346;2023-02-28T03:35:25;4.40;;;3.85;;
15843;SDS011;50807;52.436;13.346;2023-02-28T03:36:04;3.72;;;3.42;;
15843;SDS011;50807;52.436;13.346;2023-02-28T03:36:42;3.58;;;3.28;;
15843;SDS011;50807;52.436;13.346;2023-02-28T03:37:20;4.00;;;3.58;;
15843;SDS011;50807;52.436;13.346;2023-02-28T03:37:56;3.78;;;3.35;;